createdAt,value
2022-09-12T00:03:20.431Z,100.00
2022-09-12T00:05:48.787Z,100.00
2022-09-12T00:08:16.883Z,100.00
2022-09-12T00:10:45.695Z,100.00
2022-09-12T00:13:13.533Z,100.00
2022-09-12T00:15:43.090Z,100.00
2022-09-12T00:18:14.551Z,100.00
2022-09-12T00:20:44.204Z,100.00
2022-09-12T00:23:12.938Z,100.00
2022-09-12T00:25:44.241Z,100.00
2022-09-12T00:28:12.160Z,100.00
2022-09-12T00:30:43.361Z,100.00
2022-09-12T00:33:11.220Z,100.00
2022-09-12T00:35:44.891Z,100.00
2022-09-12T00:38:12.940Z,100.00
2022-09-12T00:40:40.950Z,100.00
2022-09-12T00:43:14.218Z,100.00
2022-09-12T00:45:43.339Z,100.00
2022-09-12T00:48:23.675Z,100.00
2022-09-12T00:50:52.863Z,100.00
2022-09-12T00:53:20.655Z,100.00
2022-09-12T00:55:52.948Z,100.00
2022-09-12T00:58:24.079Z,100.00
2022-09-12T01:00:52.613Z,100.00
2022-09-12T01:03:23.223Z,100.00
2022-09-12T01:05:59.949Z,100.00
2022-09-12T01:08:28.923Z,100.00
2022-09-12T01:10:58.072Z,100.00
2022-09-12T01:13:26.272Z,100.00
2022-09-12T01:15:54.297Z,100.00
2022-09-12T01:18:29.766Z,100.00
2022-09-12T01:21:19.939Z,100.00
2022-09-12T01:24:04.320Z,100.00
2022-09-12T01:27:01.722Z,100.00
2022-09-12T01:29:59.278Z,100.00
2022-09-12T01:32:36.666Z,100.00
2022-09-12T01:35:16.564Z,100.00
2022-09-12T01:37:51.703Z,100.00
2022-09-12T01:40:25.232Z,100.00
2022-09-12T01:42:58.975Z,100.00
2022-09-12T01:45:31.445Z,100.00
2022-09-12T01:48:06.976Z,100.00
2022-09-12T01:50:41.376Z,100.00
2022-09-12T01:53:15.727Z,100.00
2022-09-12T01:55:47.032Z,100.00
2022-09-12T01:58:20.066Z,100.00
2022-09-12T02:00:53.133Z,100.00
2022-09-12T02:03:29.288Z,100.00
2022-09-12T02:06:05.345Z,100.00
2022-09-12T02:08:36.497Z,100.00
2022-09-12T02:11:09.415Z,100.00
2022-09-12T02:13:42.203Z,100.00
2022-09-12T02:16:12.413Z,100.00
2022-09-12T02:18:46.508Z,100.00
2022-09-12T02:21:15.312Z,100.00
2022-09-12T02:23:49.316Z,100.00
2022-09-12T02:26:22.319Z,100.00
2022-09-12T02:28:50.507Z,100.00
2022-09-12T02:31:24.216Z,100.00
2022-09-12T02:34:08.267Z,100.00
2022-09-12T02:36:45.003Z,100.00
2022-09-12T02:39:12.790Z,100.00
2022-09-12T02:41:40.729Z,100.00
2022-09-12T02:44:08.674Z,100.00
2022-09-12T02:46:42.218Z,100.00
2022-09-12T02:49:11.822Z,100.00
2022-09-12T02:51:39.906Z,100.00
2022-09-12T02:54:08.183Z,100.00
2022-09-12T02:56:36.240Z,100.00
2022-09-12T02:59:06.772Z,100.00
2022-09-12T03:02:04.689Z,100.00
2022-09-12T03:04:54.542Z,100.00
2022-09-12T03:07:35.551Z,100.00
2022-09-12T03:10:11.333Z,100.00
2022-09-12T03:12:49.300Z,100.00
2022-09-12T03:15:29.603Z,100.00
2022-09-12T03:18:14.588Z,100.00
2022-09-12T03:20:51.784Z,100.00
2022-09-12T03:23:27.931Z,100.00
2022-09-12T03:26:00.886Z,100.00
2022-09-12T03:28:28.704Z,100.00
2022-09-12T03:30:58.197Z,100.00
2022-09-12T03:33:26.903Z,100.00
2022-09-12T03:35:56.744Z,100.00
2022-09-12T03:38:24.566Z,100.00
2022-09-12T03:40:54.905Z,100.00
2022-09-12T03:43:22.820Z,100.00
2022-09-12T03:45:52.073Z,100.00
2022-09-12T03:48:19.865Z,100.00
2022-09-12T03:50:47.655Z,100.00
2022-09-12T03:53:17.517Z,100.00
2022-09-12T03:55:45.434Z,100.00
2022-09-12T03:58:13.268Z,100.00
2022-09-12T04:00:42.833Z,100.00
2022-09-12T04:03:10.579Z,100.00
2022-09-12T04:05:38.352Z,100.00
2022-09-12T04:08:06.081Z,100.00
2022-09-12T04:10:35.424Z,100.00
2022-09-12T04:13:03.174Z,100.00
2022-09-12T04:15:30.960Z,100.00
2022-09-12T04:18:01.400Z,100.00
2022-09-12T04:20:33.066Z,100.00
2022-09-12T04:23:00.831Z,100.00
2022-09-12T04:25:28.567Z,100.00
2022-09-12T04:27:57.750Z,100.00
2022-09-12T04:30:25.528Z,100.00
2022-09-12T04:32:53.342Z,100.00
2022-09-12T04:35:21.180Z,100.00
2022-09-12T04:37:48.906Z,100.00
2022-09-12T04:40:16.845Z,100.00
2022-09-12T04:42:44.679Z,100.00
2022-09-12T04:45:14.239Z,100.00
2022-09-12T04:47:41.971Z,100.00
2022-09-12T04:50:10.287Z,100.00
2022-09-12T04:52:38.064Z,100.00
2022-09-12T04:55:06.727Z,100.00
2022-09-12T04:57:34.740Z,100.00
2022-09-12T05:00:07.227Z,100.00
2022-09-12T05:02:36.642Z,100.00
2022-09-12T05:05:04.723Z,100.00
2022-09-12T05:07:32.505Z,100.00
2022-09-12T05:10:00.521Z,100.00
2022-09-12T05:12:28.944Z,100.00
2022-09-12T05:14:56.818Z,100.00
2022-09-12T05:17:24.617Z,100.00
2022-09-12T05:19:53.791Z,100.00
2022-09-12T05:22:21.544Z,100.00
2022-09-12T05:24:50.715Z,100.00
2022-09-12T05:27:18.873Z,100.00
2022-09-12T05:29:46.674Z,100.00
2022-09-12T05:32:14.566Z,100.00
2022-09-12T05:34:42.341Z,100.00
2022-09-12T05:37:11.532Z,100.00
2022-09-12T05:39:39.328Z,100.00
2022-09-12T05:42:07.615Z,100.00
2022-09-12T05:44:35.239Z,100.00
2022-09-12T05:47:03.174Z,100.00
2022-09-12T05:49:31.061Z,100.00
2022-09-12T05:51:58.859Z,100.00
2022-09-12T05:54:31.511Z,100.00
2022-09-12T05:56:59.996Z,100.00
2022-09-12T05:59:28.572Z,100.00
2022-09-12T06:01:56.665Z,100.00
2022-09-12T06:04:24.979Z,100.00
2022-09-12T06:06:52.785Z,100.00
2022-09-12T06:09:20.807Z,100.00
2022-09-12T06:11:49.991Z,100.00
2022-09-12T06:14:19.508Z,100.00
2022-09-12T06:16:48.582Z,100.00
2022-09-12T06:19:18.477Z,100.00
2022-09-12T06:21:47.666Z,100.00
2022-09-12T06:24:15.434Z,100.00
2022-09-12T06:26:43.782Z,100.00
2022-09-12T06:29:13.404Z,100.00
2022-09-12T06:31:43.081Z,100.00
2022-09-12T06:34:13.307Z,100.00
2022-09-12T06:36:43.712Z,100.00
2022-09-12T06:39:13.472Z,100.00
2022-09-12T06:41:44.227Z,100.00
2022-09-12T06:44:16.033Z,100.00
2022-09-12T06:46:44.297Z,100.00
2022-09-12T06:49:12.283Z,100.00
2022-09-12T06:51:41.971Z,100.00
2022-09-12T06:54:10.785Z,100.00
2022-09-12T06:56:38.634Z,100.00
2022-09-12T06:59:06.719Z,100.00
2022-09-12T07:01:35.943Z,100.00
2022-09-12T07:04:05.314Z,100.00
2022-09-12T07:06:38.418Z,100.00
2022-09-12T07:09:08.287Z,100.00
2022-09-12T07:11:38.709Z,100.00
2022-09-12T07:14:08.331Z,100.00
2022-09-12T07:16:37.657Z,100.00
2022-09-12T07:19:07.431Z,100.00
2022-09-12T07:21:39.570Z,100.00
2022-09-12T07:24:08.760Z,100.00
2022-09-12T07:26:36.934Z,100.00
2022-09-12T07:29:36.438Z,100.00
2022-09-12T07:32:08.118Z,100.00
2022-09-12T07:34:36.404Z,100.00
2022-09-12T07:37:04.715Z,100.00
2022-09-12T07:39:32.576Z,100.00
2022-09-12T07:42:00.510Z,100.00
2022-09-12T07:44:29.094Z,100.00
2022-09-12T07:46:57.268Z,100.00
2022-09-12T07:49:26.442Z,100.00
2022-09-12T07:51:54.273Z,100.00
2022-09-12T07:54:22.274Z,100.00
2022-09-12T07:56:50.064Z,100.00
2022-09-12T07:59:30.253Z,100.00
2022-09-12T08:02:05.736Z,100.00
2022-09-12T08:04:36.434Z,100.00
2022-09-12T08:07:04.257Z,100.00
2022-09-12T08:09:32.016Z,100.00
2022-09-12T08:12:03.659Z,100.00
2022-09-12T08:14:34.010Z,100.00
2022-09-12T08:17:01.781Z,100.00
2022-09-12T08:19:29.867Z,100.00
2022-09-12T08:22:00.121Z,100.00
2022-09-12T08:24:27.848Z,100.00
2022-09-12T08:26:55.655Z,100.00
2022-09-12T08:29:27.857Z,100.00
2022-09-12T08:31:57.378Z,100.00
2022-09-12T08:34:26.197Z,100.00
2022-09-12T08:36:54.703Z,100.00
2022-09-12T08:39:24.654Z,100.00
2022-09-12T08:42:01.564Z,100.00
2022-09-12T08:44:46.283Z,100.00
2022-09-12T08:47:23.253Z,100.00
2022-09-12T08:49:58.067Z,100.00
2022-09-12T08:52:31.980Z,100.00
2022-09-12T08:55:03.014Z,100.00
2022-09-12T08:57:30.864Z,100.00
2022-09-12T08:59:58.786Z,99.42
2022-09-12T09:02:53.872Z,100.00
2022-09-12T09:05:31.222Z,92.93
2022-09-12T09:08:37.408Z,100.00
2022-09-12T09:11:21.734Z,97.92
2022-09-12T09:14:22.016Z,96.64
2022-09-12T09:16:53.187Z,96.76
2022-09-12T09:19:24.889Z,93.27
2022-09-12T09:21:55.629Z,86.89
2022-09-12T09:24:29.694Z,89.63
2022-09-12T09:27:01.569Z,96.97
2022-09-12T09:29:34.870Z,88.21
2022-09-12T09:32:05.751Z,85.37
2022-09-12T09:34:33.835Z,85.63
2022-09-12T09:37:09.865Z,85.36
2022-09-12T09:39:51.146Z,86.14
2022-09-12T09:42:31.447Z,89.32
2022-09-12T09:45:01.840Z,80.63
2022-09-12T09:47:29.887Z,83.07
2022-09-12T09:49:57.918Z,85.21
2022-09-12T09:52:29.503Z,80.03
2022-09-12T09:55:00.656Z,81.87
2022-09-12T09:57:46.691Z,78.96
2022-09-12T10:00:39.058Z,83.81
2022-09-12T10:03:32.587Z,83.60
2022-09-12T10:06:02.613Z,76.78
2022-09-12T10:08:32.304Z,75.44
2022-09-12T10:11:05.837Z,73.79
2022-09-12T10:13:42.808Z,80.63
2022-09-12T10:16:22.131Z,78.44
2022-09-12T10:18:52.586Z,74.47
2022-09-12T10:21:31.388Z,78.81
2022-09-12T10:24:04.343Z,75.78
2022-09-12T10:26:36.026Z,71.80
2022-09-12T10:29:25.614Z,76.23
2022-09-12T10:31:56.367Z,71.89
2022-09-12T10:34:30.605Z,68.03
2022-09-12T10:37:05.173Z,70.82
2022-09-12T10:39:34.975Z,71.31
2022-09-12T10:42:03.581Z,70.60
2022-09-12T10:44:35.904Z,63.38
2022-09-12T10:47:21.975Z,66.01
2022-09-12T10:49:51.276Z,65.21
2022-09-12T10:52:23.255Z,68.76
2022-09-12T10:54:51.534Z,64.71
2022-09-12T10:57:40.352Z,66.17
2022-09-12T11:00:17.511Z,64.84
2022-09-12T11:03:07.686Z,59.73
2022-09-12T11:05:45.721Z,64.40
2022-09-12T11:08:24.151Z,66.85
2022-09-12T11:11:00.933Z,62.83
2022-09-12T11:13:47.936Z,60.95
2022-09-12T11:16:25.222Z,62.30
2022-09-12T11:19:14.833Z,65.74
2022-09-12T11:21:53.720Z,58.57
2022-09-12T11:24:48.296Z,63.68
2022-09-12T11:27:34.151Z,60.13
2022-09-12T11:30:06.947Z,59.60
2022-09-12T11:33:10.409Z,63.04
2022-09-12T11:35:49.754Z,63.58
2022-09-12T11:38:39.259Z,58.79
2022-09-12T11:41:10.823Z,61.20
2022-09-12T11:43:43.143Z,60.24
2022-09-12T11:46:19.259Z,60.58
2022-09-12T11:48:56.333Z,58.46
2022-09-12T11:51:28.858Z,56.86
2022-09-12T11:54:05.798Z,57.87
2022-09-12T11:56:37.173Z,59.20
2022-09-12T11:59:14.995Z,60.84
2022-09-12T12:01:48.762Z,59.97
2022-09-12T12:04:25.943Z,60.68
2022-09-12T12:07:02.869Z,55.08
2022-09-12T12:09:31.532Z,56.34
2022-09-12T12:12:05.058Z,55.97
2022-09-12T12:14:41.896Z,61.21
2022-09-12T12:17:16.728Z,61.25
2022-09-12T12:19:47.404Z,56.67
2022-09-12T12:22:21.510Z,59.77
2022-09-12T12:25:00.959Z,55.20
2022-09-12T12:27:51.170Z,52.04
2022-09-12T12:31:01.292Z,57.33
2022-09-12T12:34:03.316Z,58.22
2022-09-12T12:36:41.005Z,57.66
2022-09-12T12:39:46.981Z,51.21
2022-09-12T12:43:04.514Z,52.23
2022-09-12T12:45:50.715Z,55.00
2022-09-12T12:48:20.424Z,53.14
2022-09-12T12:50:48.587Z,52.71
2022-09-12T12:53:22.718Z,52.54
2022-09-12T12:55:53.065Z,52.59
2022-09-12T12:58:33.051Z,51.08
2022-09-12T13:01:11.207Z,48.28
2022-09-12T13:03:42.144Z,50.57
2022-09-12T13:06:22.489Z,51.50
2022-09-12T13:09:01.045Z,49.31
2022-09-12T13:11:32.987Z,49.58
2022-09-12T13:14:03.092Z,46.20
2022-09-12T13:16:35.970Z,50.23
2022-09-12T13:19:06.721Z,47.87
2022-09-12T13:21:34.879Z,51.66
2022-09-12T13:24:06.317Z,53.82
2022-09-12T13:26:37.009Z,45.35
2022-09-12T13:29:12.808Z,45.30
2022-09-12T13:31:45.362Z,46.52
2022-09-12T13:34:21.329Z,46.52
2022-09-12T13:37:16.267Z,45.17
2022-09-12T13:39:50.001Z,47.79
2022-09-12T13:42:42.556Z,44.27
2022-09-12T13:45:19.097Z,44.41
2022-09-12T13:47:49.201Z,44.67
2022-09-12T13:50:22.223Z,47.00
2022-09-12T13:52:53.618Z,45.51
2022-09-12T13:55:31.673Z,44.33
2022-09-12T13:58:02.095Z,46.95
2022-09-12T14:00:32.328Z,45.01
2022-09-12T14:03:18.368Z,46.26
2022-09-12T14:05:49.357Z,42.51
2022-09-12T14:08:17.272Z,42.15
2022-09-12T14:10:47.950Z,44.63
2022-09-12T14:13:32.293Z,45.03
2022-09-12T14:16:00.421Z,45.63
2022-09-12T14:18:30.167Z,44.53
2022-09-12T14:21:10.502Z,42.52
2022-09-12T14:23:42.658Z,45.69
2022-09-12T14:26:15.395Z,45.71
2022-09-12T14:28:47.383Z,48.00
2022-09-12T14:31:24.499Z,44.59
2022-09-12T14:33:54.079Z,46.23
2022-09-12T14:36:25.827Z,44.83
2022-09-12T14:38:56.804Z,43.72
2022-09-12T14:41:30.681Z,43.42
2022-09-12T14:44:01.305Z,46.53
2022-09-12T14:46:33.733Z,46.20
2022-09-12T14:49:03.420Z,44.83
2022-09-12T14:51:34.973Z,46.81
2022-09-12T14:54:02.945Z,43.91
2022-09-12T14:56:43.285Z,45.65
2022-09-12T14:59:30.267Z,44.69
2022-09-12T15:02:22.965Z,44.04
2022-09-12T15:04:53.423Z,48.01
2022-09-12T15:07:32.441Z,45.73
2022-09-12T15:10:01.305Z,46.50
2022-09-12T15:12:30.482Z,48.35
2022-09-12T15:15:03.349Z,47.05
2022-09-12T15:17:31.087Z,43.78
2022-09-12T15:19:58.818Z,44.73
2022-09-12T15:22:27.075Z,48.09
2022-09-12T15:24:56.376Z,47.41
2022-09-12T15:27:26.690Z,46.97
2022-09-12T15:29:56.293Z,46.53
2022-09-12T15:32:25.391Z,47.57
2022-09-12T15:34:53.851Z,47.17
2022-09-12T15:37:23.131Z,46.42
2022-09-12T15:39:51.619Z,49.60
2022-09-12T15:42:26.936Z,49.02
2022-09-12T15:45:00.569Z,46.64
2022-09-12T15:47:30.100Z,47.68
2022-09-12T15:49:57.824Z,46.49
2022-09-12T15:52:25.619Z,48.48
2022-09-12T15:54:53.385Z,49.39
2022-09-12T15:57:21.133Z,48.82
2022-09-12T15:59:48.819Z,50.09
2022-09-12T16:02:18.012Z,49.03
2022-09-12T16:04:46.370Z,45.72
2022-09-12T16:07:14.090Z,48.76
2022-09-12T16:09:41.882Z,47.61
2022-09-12T16:12:10.583Z,46.91
2022-09-12T16:14:38.380Z,49.71
2022-09-12T16:17:06.211Z,50.17
2022-09-12T16:19:35.437Z,51.48
2022-09-12T16:22:05.860Z,51.27
2022-09-12T16:24:33.672Z,52.62
2022-09-12T16:27:01.586Z,50.36
2022-09-12T16:29:29.494Z,49.03
2022-09-12T16:31:57.267Z,49.48
2022-09-12T16:34:25.017Z,50.69
2022-09-12T16:36:54.284Z,52.99
2022-09-12T16:39:22.032Z,53.51
2022-09-12T16:41:49.752Z,52.48
2022-09-12T16:44:17.555Z,52.56
2022-09-12T16:46:45.941Z,51.39
2022-09-12T16:49:13.950Z,55.12
2022-09-12T16:51:44.838Z,53.42
2022-09-12T16:54:15.306Z,53.34
2022-09-12T16:56:43.152Z,55.24
2022-09-12T16:59:16.155Z,54.90
2022-09-12T17:01:45.141Z,55.63
2022-09-12T17:04:13.129Z,52.63
2022-09-12T17:06:41.879Z,61.40
2022-09-12T17:09:11.193Z,64.80
2022-09-12T17:11:40.575Z,62.75
2022-09-12T17:14:10.238Z,60.50
2022-09-12T17:16:40.452Z,65.51
2022-09-12T17:19:09.481Z,63.24
2022-09-12T17:21:37.389Z,63.30
2022-09-12T17:24:05.446Z,63.62
2022-09-12T17:26:33.396Z,69.33
2022-09-12T17:29:03.242Z,69.87
2022-09-12T17:31:31.306Z,70.52
2022-09-12T17:33:59.659Z,74.02
2022-09-12T17:36:28.688Z,75.13
2022-09-12T17:38:56.520Z,76.83
2022-09-12T17:41:27.376Z,75.63
2022-09-12T17:43:57.289Z,79.35
2022-09-12T17:46:31.911Z,79.95
2022-09-12T17:49:00.911Z,79.45
2022-09-12T17:51:30.780Z,82.52
2022-09-12T17:54:01.085Z,81.98
2022-09-12T17:56:30.745Z,84.20
2022-09-12T17:58:59.462Z,85.34
2022-09-12T18:01:47.169Z,86.40
2022-09-12T18:04:15.678Z,87.95
2022-09-12T18:06:48.092Z,88.94
2022-09-12T18:09:17.699Z,89.79
2022-09-12T18:11:45.958Z,89.91
2022-09-12T18:14:14.471Z,90.93
2022-09-12T18:16:44.211Z,91.03
2022-09-12T18:19:12.297Z,93.51
2022-09-12T18:21:40.430Z,92.26
2022-09-12T18:24:08.424Z,93.04
2022-09-12T18:26:36.168Z,93.88
2022-09-12T18:29:03.959Z,94.10
2022-09-12T18:31:31.867Z,95.88
2022-09-12T18:34:01.446Z,95.90
2022-09-12T18:36:30.339Z,96.46
2022-09-12T18:38:59.609Z,97.58
2022-09-12T18:41:28.962Z,99.21
2022-09-12T18:43:57.877Z,99.10
2022-09-12T18:46:26.281Z,100.00
2022-09-12T18:48:55.494Z,100.00
2022-09-12T18:51:31.182Z,100.00
2022-09-12T18:54:00.636Z,100.00
2022-09-12T18:56:32.667Z,100.00
2022-09-12T18:59:02.093Z,100.00
2022-09-12T19:01:31.730Z,100.00
2022-09-12T19:04:00.927Z,100.00
2022-09-12T19:06:31.540Z,100.00
2022-09-12T19:09:03.855Z,100.00
2022-09-12T19:11:34.666Z,100.00
2022-09-12T19:14:02.503Z,100.00
2022-09-12T19:16:30.931Z,100.00
2022-09-12T19:19:00.151Z,100.00
2022-09-12T19:21:31.625Z,100.00
2022-09-12T19:24:01.260Z,100.00
2022-09-12T19:26:29.551Z,100.00
2022-09-12T19:28:57.604Z,100.00
2022-09-12T19:31:26.376Z,100.00
2022-09-12T19:33:54.295Z,100.00
2022-09-12T19:39:12.821Z,100.00
2022-09-12T19:41:40.685Z,100.00
2022-09-12T19:44:08.419Z,100.00
2022-09-12T19:46:36.216Z,100.00
2022-09-12T19:49:04.500Z,100.00
2022-09-12T19:51:32.229Z,100.00
2022-09-12T19:53:59.958Z,100.00
2022-09-12T19:56:29.389Z,100.00
2022-09-12T19:58:57.132Z,100.00
2022-09-12T20:01:28.277Z,100.00
2022-09-12T20:03:57.038Z,100.00
2022-09-12T20:06:24.807Z,100.00
2022-09-12T20:08:52.611Z,100.00
2022-09-12T20:11:22.055Z,100.00
2022-09-12T20:13:51.399Z,100.00
2022-09-12T20:16:22.359Z,100.00
2022-09-12T20:18:55.467Z,100.00
2022-09-12T20:21:31.000Z,100.00
2022-09-12T20:24:01.559Z,100.00
2022-09-12T20:26:29.334Z,100.00
2022-09-12T20:28:58.445Z,100.00
2022-09-12T20:31:26.669Z,100.00
2022-09-12T20:33:55.773Z,100.00
2022-09-12T20:36:24.158Z,100.00
2022-09-12T20:38:54.021Z,100.00
2022-09-12T20:41:22.698Z,100.00
2022-09-12T20:43:51.126Z,99.81
2022-09-12T20:46:22.143Z,96.53
2022-09-12T20:48:50.757Z,95.48
2022-09-12T20:51:18.895Z,95.54
2022-09-12T20:53:46.732Z,92.64
2022-09-12T20:56:15.125Z,92.09
2022-09-12T20:58:44.320Z,87.47
2022-09-12T21:01:16.536Z,88.19
2022-09-12T21:03:46.982Z,87.75
2022-09-12T21:06:16.992Z,85.83
2022-09-12T21:08:46.011Z,86.64
2022-09-12T21:11:14.411Z,87.28
2022-09-12T21:13:42.403Z,82.98
2022-09-12T21:16:13.199Z,83.63
2022-09-12T21:18:42.327Z,83.45
2022-09-12T21:21:12.916Z,82.45
2022-09-12T21:23:41.515Z,85.01
2022-09-12T21:26:09.774Z,85.59
2022-09-12T21:28:37.868Z,86.04
2022-09-12T21:31:05.861Z,82.46
2022-09-12T21:33:33.987Z,83.15
2022-09-12T21:36:03.883Z,81.64
2022-09-12T21:38:33.406Z,83.11
2022-09-12T21:41:06.209Z,83.05
2022-09-12T21:43:33.989Z,80.28
2022-09-12T21:46:02.417Z,81.95
2022-09-12T21:48:30.825Z,83.22
2022-09-12T21:50:58.714Z,83.68
2022-09-12T21:53:26.642Z,83.22
2022-09-12T21:55:55.791Z,83.52
2022-09-12T21:58:23.498Z,84.79
2022-09-12T22:00:51.921Z,85.56
2022-09-12T22:03:19.748Z,87.84
2022-09-12T22:05:52.337Z,88.22
2022-09-12T22:08:20.115Z,89.03
2022-09-12T22:10:47.872Z,90.51
2022-09-12T22:13:16.995Z,90.29
2022-09-12T22:15:45.387Z,93.42
2022-09-12T22:18:13.185Z,94.49
2022-09-12T22:20:40.913Z,94.15
2022-09-12T22:23:26.419Z,96.45
2022-09-12T22:25:55.494Z,97.43
2022-09-12T22:28:25.187Z,98.07
2022-09-12T22:30:54.369Z,98.31
2022-09-12T22:33:22.566Z,99.16
2022-09-12T22:35:50.339Z,100.00
2022-09-12T22:38:18.183Z,99.16
2022-09-12T22:40:45.969Z,100.00
2022-09-12T22:43:13.831Z,100.00
2022-09-12T22:45:43.361Z,100.00
2022-09-12T22:48:11.193Z,96.28
2022-09-12T22:50:38.926Z,95.03
2022-09-12T22:53:06.639Z,98.23
2022-09-12T22:55:34.530Z,99.22
2022-09-12T22:58:03.590Z,98.86
2022-09-12T23:00:31.458Z,98.25
2022-09-12T23:03:01.850Z,99.52
2022-09-12T23:05:29.747Z,100.00
2022-09-12T23:07:57.584Z,100.00
2022-09-12T23:10:27.559Z,98.42
2022-09-12T23:12:55.419Z,100.00
2022-09-12T23:15:23.183Z,100.00
2022-09-12T23:17:50.888Z,99.43
2022-09-12T23:20:20.026Z,99.79
2022-09-12T23:22:47.763Z,100.00
2022-09-12T23:25:15.525Z,100.00
2022-09-12T23:27:43.397Z,97.34
2022-09-12T23:30:13.013Z,97.95
2022-09-12T23:32:40.999Z,98.85
2022-09-12T23:35:08.936Z,97.48
2022-09-12T23:37:38.069Z,97.85
2022-09-12T23:40:09.068Z,97.18
2022-09-12T23:42:37.301Z,96.04
2022-09-12T23:45:05.445Z,95.63
2022-09-12T23:47:33.201Z,96.53
2022-09-12T23:50:00.981Z,95.10
2022-09-12T23:52:29.671Z,94.39
2022-09-12T23:54:58.796Z,94.58
2022-09-12T23:57:26.530Z,95.67
2022-09-12T23:59:54.273Z,94.70
